createdAt,value
2023-03-19T00:01:46.510Z,9.30
2023-03-19T00:04:37.964Z,9.40
2023-03-19T00:07:26.461Z,9.40
2023-03-19T00:10:17.958Z,10.20
2023-03-19T00:13:06.489Z,9.60
2023-03-19T00:15:54.006Z,9.40
2023-03-19T00:18:41.484Z,9.30
2023-03-19T00:21:30.680Z,8.60
2023-03-19T00:24:19.037Z,9.70
2023-03-19T00:27:08.581Z,9.60
2023-03-19T00:29:56.515Z,9.50
2023-03-19T00:32:44.081Z,11.50
2023-03-19T00:35:32.272Z,9.70
2023-03-19T00:38:20.385Z,9.60
2023-03-19T00:41:07.982Z,9.50
2023-03-19T00:43:57.641Z,9.60
2023-03-19T00:46:46.557Z,9.40
2023-03-19T00:49:34.493Z,9.40
2023-03-19T00:52:22.996Z,11.60
2023-03-19T00:55:11.178Z,9.60
2023-03-19T00:57:58.624Z,9.50
2023-03-19T01:00:48.814Z,11.10
2023-03-19T01:03:36.855Z,9.60
2023-03-19T01:06:26.935Z,9.50
2023-03-19T01:09:15.278Z,9.60
2023-03-19T01:12:05.049Z,9.60
2023-03-19T01:14:55.649Z,9.80
2023-03-19T01:17:44.802Z,9.60
2023-03-19T01:20:33.598Z,9.70
2023-03-19T01:23:21.801Z,10.50
2023-03-19T01:26:09.332Z,9.80
2023-03-19T01:28:57.252Z,9.80
2023-03-19T01:31:47.086Z,9.80
2023-03-19T01:34:58.178Z,9.80
2023-03-19T01:37:46.126Z,9.90
2023-03-19T01:40:34.521Z,9.80
2023-03-19T01:43:22.962Z,9.70
2023-03-19T01:46:17.998Z,9.80
2023-03-19T01:49:26.221Z,9.90
2023-03-19T01:52:32.589Z,11.00
2023-03-19T01:55:37.438Z,9.80
2023-03-19T01:58:37.502Z,10.00
2023-03-19T02:01:59.466Z,10.10
2023-03-19T02:04:48.806Z,7.70
2023-03-19T02:07:39.878Z,10.00
2023-03-19T02:10:28.080Z,10.00
2023-03-19T02:13:16.469Z,10.10
2023-03-19T02:16:07.563Z,10.40
2023-03-19T02:18:55.286Z,10.50
2023-03-19T02:21:43.002Z,10.00
2023-03-19T02:24:36.661Z,10.00
2023-03-19T02:27:32.898Z,10.00
2023-03-19T02:30:21.875Z,12.40
2023-03-19T02:33:11.517Z,10.90
2023-03-19T02:35:59.683Z,10.50
2023-03-19T02:38:48.027Z,10.10
2023-03-19T02:41:35.817Z,10.10
2023-03-19T02:44:29.613Z,10.10
2023-03-19T02:47:18.186Z,10.10
2023-03-19T02:50:06.458Z,11.20
2023-03-19T02:52:54.122Z,10.10
2023-03-19T02:55:45.012Z,12.20
2023-03-19T02:58:32.625Z,10.10
2023-03-19T03:01:21.885Z,12.80
2023-03-19T03:04:09.898Z,10.10
2023-03-19T03:06:58.117Z,10.10
2023-03-19T03:09:45.616Z,11.30
2023-03-19T03:12:33.773Z,10.10
2023-03-19T03:15:21.739Z,9.60
2023-03-19T03:18:12.449Z,10.30
2023-03-19T03:21:00.336Z,11.70
2023-03-19T03:23:48.447Z,12.40
2023-03-19T03:26:39.006Z,10.40
2023-03-19T03:29:27.253Z,10.20
2023-03-19T03:32:15.188Z,10.30
2023-03-19T03:35:04.689Z,10.70
2023-03-19T03:37:53.131Z,9.70
2023-03-19T03:40:42.381Z,10.40
2023-03-19T03:43:30.419Z,10.10
2023-03-19T03:46:19.588Z,10.30
2023-03-19T03:49:10.476Z,10.30
2023-03-19T03:51:59.988Z,10.30
2023-03-19T03:54:48.010Z,10.30
2023-03-19T03:57:36.399Z,10.30
2023-03-19T04:00:24.298Z,10.30
2023-03-19T04:03:13.503Z,12.10
2023-03-19T04:06:03.792Z,10.80
2023-03-19T04:08:54.397Z,10.20
2023-03-19T04:11:43.353Z,10.50
2023-03-19T04:14:33.767Z,10.30
2023-03-19T04:17:23.950Z,10.30
2023-03-19T04:20:16.658Z,10.30
2023-03-19T04:23:04.614Z,10.30
2023-03-19T04:25:54.484Z,11.50
2023-03-19T04:28:41.876Z,10.20
2023-03-19T04:31:35.408Z,10.30
2023-03-19T04:34:23.209Z,10.30
2023-03-19T04:37:11.452Z,10.40
2023-03-19T04:40:07.120Z,10.30
2023-03-19T04:42:58.812Z,10.20
2023-03-19T04:45:52.625Z,10.20
2023-03-19T04:48:42.279Z,10.10
2023-03-19T04:51:30.086Z,10.10
2023-03-19T04:54:17.970Z,9.80
2023-03-19T04:57:05.963Z,9.80
2023-03-19T04:59:59.028Z,9.60
2023-03-19T05:02:47.383Z,9.50
2023-03-19T05:05:35.969Z,9.30
2023-03-19T05:08:27.528Z,9.10
2023-03-19T05:11:15.793Z,9.00
2023-03-19T05:14:20.045Z,10.00
2023-03-19T05:17:24.852Z,8.70
2023-03-19T05:20:23.888Z,8.50
2023-03-19T05:23:18.446Z,8.50
2023-03-19T05:26:26.660Z,8.50
2023-03-19T05:29:40.806Z,8.50
2023-03-19T05:32:54.913Z,8.50
2023-03-19T05:35:58.545Z,8.60
2023-03-19T05:38:55.875Z,8.70
2023-03-19T05:41:52.780Z,8.70
2023-03-19T05:44:45.837Z,8.60
2023-03-19T05:48:01.815Z,8.40
2023-03-19T05:50:52.874Z,8.20
2023-03-19T05:53:42.412Z,8.10
2023-03-19T05:57:10.005Z,7.90
2023-03-19T05:59:58.218Z,7.90
2023-03-19T06:02:46.328Z,7.80
2023-03-19T06:05:41.780Z,7.90
2023-03-19T06:08:53.465Z,7.90
2023-03-19T06:12:01.316Z,8.30
2023-03-19T06:15:09.934Z,8.10
2023-03-19T06:18:18.090Z,8.20
2023-03-19T06:21:08.161Z,10.50
2023-03-19T06:24:13.744Z,8.40
2023-03-19T06:27:01.464Z,8.50
2023-03-19T06:29:49.992Z,8.40
2023-03-19T06:32:43.876Z,8.60
2023-03-19T06:35:34.266Z,8.60
2023-03-19T06:38:23.091Z,8.70
2023-03-19T06:41:11.632Z,8.80
2023-03-19T06:44:00.142Z,8.80
2023-03-19T06:46:51.092Z,8.80
2023-03-19T06:49:38.688Z,8.90
2023-03-19T06:52:27.620Z,8.80
2023-03-19T06:55:18.036Z,8.80
2023-03-19T06:58:06.257Z,8.70
2023-03-19T07:00:54.638Z,8.70
2023-03-19T07:03:42.650Z,8.60
2023-03-19T07:06:31.530Z,8.70
2023-03-19T07:09:19.696Z,8.70
2023-03-19T07:12:12.297Z,8.70
2023-03-19T07:15:00.563Z,8.70
2023-03-19T07:17:48.471Z,8.70
2023-03-19T07:20:36.632Z,8.70
2023-03-19T07:23:24.961Z,8.70
2023-03-19T07:26:13.453Z,8.80
2023-03-19T07:29:03.611Z,8.80
2023-03-19T07:31:51.325Z,8.80
2023-03-19T07:34:38.887Z,8.80
2023-03-19T07:37:27.009Z,8.80
2023-03-19T07:40:16.698Z,8.70
2023-03-19T07:43:05.238Z,9.00
2023-03-19T07:45:55.277Z,9.00
2023-03-19T07:48:43.994Z,9.00
2023-03-19T07:51:31.833Z,9.10
2023-03-19T07:54:20.002Z,7.70
2023-03-19T07:57:08.917Z,9.40
2023-03-19T07:59:56.307Z,9.40
2023-03-19T08:02:45.335Z,9.40
2023-03-19T08:05:33.039Z,9.50
2023-03-19T08:08:21.782Z,9.50
2023-03-19T08:11:09.269Z,9.50
2023-03-19T08:13:57.467Z,9.60
2023-03-19T08:16:46.827Z,9.70
2023-03-19T08:19:36.773Z,9.70
2023-03-19T08:22:24.554Z,9.80
2023-03-19T08:25:14.859Z,9.80
2023-03-19T08:28:03.799Z,9.80
2023-03-19T08:30:51.822Z,9.90
2023-03-19T08:33:40.149Z,10.00
2023-03-19T08:36:29.617Z,10.10
2023-03-19T08:39:16.991Z,10.20
2023-03-19T08:42:04.967Z,9.40
2023-03-19T08:44:52.450Z,10.30
2023-03-19T08:47:40.128Z,10.50
2023-03-19T08:50:28.385Z,10.50
2023-03-19T08:53:17.164Z,10.50
2023-03-19T08:56:06.388Z,10.60
2023-03-19T08:58:54.517Z,10.70
2023-03-19T09:01:42.555Z,10.70
2023-03-19T09:04:30.709Z,10.90
2023-03-19T09:07:18.523Z,11.40
2023-03-19T09:10:08.311Z,10.90
2023-03-19T09:12:55.858Z,11.00
2023-03-19T09:15:43.559Z,11.00
2023-03-19T09:18:31.785Z,11.50
2023-03-19T09:21:20.570Z,11.30
2023-03-19T09:24:09.333Z,11.30
2023-03-19T09:26:58.863Z,11.50
2023-03-19T09:29:48.216Z,12.20
2023-03-19T09:32:38.224Z,11.60
2023-03-19T09:35:31.302Z,12.20
2023-03-19T09:38:18.876Z,12.30
2023-03-19T09:41:10.281Z,12.50
2023-03-19T09:44:02.247Z,12.40
2023-03-19T09:46:54.966Z,12.30
2023-03-19T09:49:45.047Z,12.20
2023-03-19T09:52:40.103Z,12.40
2023-03-19T09:55:33.938Z,11.10
2023-03-19T09:58:22.514Z,14.50
2023-03-19T10:01:22.190Z,13.20
2023-03-19T10:04:43.835Z,13.20
2023-03-19T10:07:38.809Z,12.70
2023-03-19T10:10:31.466Z,13.70
2023-03-19T10:13:27.885Z,13.90
2023-03-19T10:16:22.366Z,13.80
2023-03-19T10:19:12.993Z,13.90
2023-03-19T10:22:04.661Z,13.90
2023-03-19T10:24:54.883Z,14.20
2023-03-19T10:27:43.402Z,14.50
2023-03-19T10:30:33.061Z,14.80
2023-03-19T10:33:26.464Z,15.10
2023-03-19T10:36:17.945Z,14.40
2023-03-19T10:39:08.058Z,14.60
2023-03-19T10:42:02.929Z,13.80
2023-03-19T10:44:52.005Z,13.30
2023-03-19T10:47:40.526Z,13.00
2023-03-19T10:50:33.098Z,12.90
2023-03-19T10:53:29.155Z,13.10
2023-03-19T10:56:20.802Z,12.90
2023-03-19T10:59:22.037Z,13.00
2023-03-19T11:02:19.603Z,13.20
2023-03-19T11:05:09.668Z,13.50
2023-03-19T11:08:00.076Z,14.10
2023-03-19T11:10:49.244Z,14.80
2023-03-19T11:13:37.395Z,14.40
2023-03-19T11:16:25.511Z,14.20
2023-03-19T11:19:19.432Z,13.90
2023-03-19T11:22:16.041Z,14.10
2023-03-19T11:25:15.609Z,14.10
2023-03-19T11:28:04.412Z,14.70
2023-03-19T11:30:57.334Z,15.10
2023-03-19T11:34:09.769Z,14.50
2023-03-19T11:37:02.721Z,14.80
2023-03-19T11:39:57.725Z,14.20
2023-03-19T11:42:52.637Z,14.30
2023-03-19T11:45:44.446Z,14.50
2023-03-19T11:48:47.095Z,14.20
2023-03-19T11:51:39.402Z,14.30
2023-03-19T11:54:30.857Z,14.50
2023-03-19T11:57:24.300Z,16.00
2023-03-19T12:00:21.660Z,15.10
2023-03-19T12:03:24.643Z,15.30
2023-03-19T12:06:19.940Z,14.60
2023-03-19T12:09:14.355Z,14.20
2023-03-19T12:12:09.036Z,12.00
2023-03-19T12:15:04.837Z,13.60
2023-03-19T12:18:00.170Z,13.70
2023-03-19T12:20:54.088Z,13.80
2023-03-19T12:23:45.806Z,13.80
2023-03-19T12:26:41.004Z,14.50
2023-03-19T12:29:36.623Z,15.40
2023-03-19T12:32:34.993Z,15.10
2023-03-19T12:35:27.213Z,14.90
2023-03-19T12:38:18.883Z,14.50
2023-03-19T12:41:11.350Z,14.30
2023-03-19T12:44:03.271Z,13.80
2023-03-19T12:46:58.601Z,13.20
2023-03-19T12:49:50.447Z,13.10
2023-03-19T12:52:40.883Z,13.00
2023-03-19T12:55:37.838Z,12.90
2023-03-19T12:58:31.493Z,12.80
2023-03-19T13:01:22.491Z,12.90
2023-03-19T13:04:11.962Z,13.20
2023-03-19T13:07:02.517Z,13.70
2023-03-19T13:09:54.934Z,14.00
2023-03-19T13:12:43.171Z,14.40
2023-03-19T13:15:34.435Z,14.60
2023-03-19T13:18:27.182Z,14.00
2023-03-19T13:21:23.655Z,14.10
2023-03-19T13:24:17.496Z,14.10
2023-03-19T13:27:08.300Z,13.40
2023-03-19T13:30:00.948Z,13.30
2023-03-19T13:32:50.148Z,15.40
2023-03-19T13:35:40.765Z,13.50
2023-03-19T13:38:32.492Z,14.00
2023-03-19T13:41:39.435Z,14.40
2023-03-19T13:44:40.852Z,15.00
2023-03-19T13:47:39.008Z,15.40
2023-03-19T13:50:28.216Z,15.60
2023-03-19T13:53:24.103Z,17.00
2023-03-19T13:56:29.168Z,17.00
2023-03-19T13:59:27.164Z,16.40
2023-03-19T14:02:33.497Z,16.20
2023-03-19T14:05:22.917Z,16.00
2023-03-19T14:08:18.589Z,16.30
2023-03-19T14:11:08.754Z,15.70
2023-03-19T14:13:59.020Z,15.90
2023-03-19T14:16:49.305Z,16.10
2023-03-19T14:19:41.988Z,16.30
2023-03-19T14:22:39.534Z,16.60
2023-03-19T14:25:28.816Z,16.10
2023-03-19T14:28:20.319Z,17.20
2023-03-19T14:31:08.012Z,14.40
2023-03-19T14:34:01.049Z,13.50
2023-03-19T14:36:51.552Z,14.30
2023-03-19T14:39:47.097Z,13.10
2023-03-19T14:42:39.850Z,12.80
2023-03-19T14:45:37.221Z,12.70
2023-03-19T14:48:44.986Z,13.10
2023-03-19T14:51:42.137Z,14.60
2023-03-19T14:54:34.949Z,13.10
2023-03-19T14:57:27.388Z,12.80
2023-03-19T15:00:18.722Z,13.60
2023-03-19T15:03:14.609Z,12.90
2023-03-19T15:06:02.953Z,13.20
2023-03-19T15:08:51.481Z,13.50
2023-03-19T15:12:03.093Z,13.10
2023-03-19T15:15:03.324Z,13.30
2023-03-19T15:18:03.175Z,12.90
2023-03-19T15:20:56.004Z,13.10
2023-03-19T15:23:46.946Z,13.20
2023-03-19T15:26:36.479Z,12.90
2023-03-19T15:29:32.416Z,12.70
2023-03-19T15:32:52.060Z,12.90
2023-03-19T15:35:47.366Z,12.70
2023-03-19T15:38:37.485Z,12.40
2023-03-19T15:41:27.117Z,12.30
2023-03-19T15:44:18.403Z,12.20
2023-03-19T15:47:08.150Z,12.30
2023-03-19T15:50:00.857Z,12.20
2023-03-19T15:52:51.358Z,12.20
2023-03-19T15:55:39.361Z,11.90
2023-03-19T15:58:29.413Z,11.80
2023-03-19T16:01:18.763Z,11.60
2023-03-19T16:04:08.168Z,11.50
2023-03-19T16:06:59.408Z,11.30
2023-03-19T16:09:48.673Z,12.40
2023-03-19T16:12:38.665Z,11.20
2023-03-19T16:15:30.614Z,11.40
2023-03-19T16:18:25.498Z,12.30
2023-03-19T16:21:16.903Z,13.60
2023-03-19T16:24:10.628Z,12.00
2023-03-19T16:26:59.615Z,11.90
2023-03-19T16:29:48.008Z,11.60
2023-03-19T16:32:38.682Z,11.60
2023-03-19T16:35:30.291Z,11.60
2023-03-19T16:38:19.630Z,11.40
2023-03-19T16:41:24.649Z,11.40
2023-03-19T16:44:18.026Z,11.10
2023-03-19T16:47:10.230Z,10.70
2023-03-19T16:50:01.213Z,10.60
2023-03-19T16:52:49.541Z,10.50
2023-03-19T16:55:37.523Z,10.50
2023-03-19T16:58:29.857Z,10.30
2023-03-19T17:01:19.749Z,10.20
2023-03-19T17:04:11.467Z,10.10
2023-03-19T17:07:00.060Z,10.20
2023-03-19T17:09:49.825Z,11.30
2023-03-19T17:12:37.725Z,10.00
2023-03-19T17:15:28.425Z,9.80
2023-03-19T17:18:17.919Z,9.50
2023-03-19T17:21:09.012Z,9.90
2023-03-19T17:23:57.558Z,9.90
2023-03-19T17:26:45.084Z,9.80
2023-03-19T17:29:34.059Z,9.90
2023-03-19T17:32:25.673Z,9.80
2023-03-19T17:35:15.680Z,9.80
2023-03-19T17:38:05.446Z,9.80
2023-03-19T17:40:53.097Z,9.80
2023-03-19T17:43:50.162Z,9.10
2023-03-19T17:46:38.898Z,9.60
2023-03-19T17:49:31.173Z,9.60
2023-03-19T17:52:19.033Z,9.70
2023-03-19T17:55:12.102Z,9.70
2023-03-19T17:57:59.862Z,9.80
2023-03-19T18:00:48.610Z,9.50
2023-03-19T18:03:36.557Z,9.40
2023-03-19T18:06:27.127Z,9.40
2023-03-19T18:09:19.197Z,9.40
2023-03-19T18:12:11.272Z,9.40
2023-03-19T18:14:58.817Z,10.00
2023-03-19T18:17:51.143Z,9.30
2023-03-19T18:20:39.767Z,9.20
2023-03-19T18:23:44.924Z,9.20
2023-03-19T18:26:35.945Z,9.20
2023-03-19T18:29:27.749Z,9.20
2023-03-19T18:32:17.570Z,9.20
2023-03-19T18:35:05.174Z,9.20
2023-03-19T18:37:53.371Z,9.10
2023-03-19T18:40:43.568Z,9.10
2023-03-19T18:43:31.405Z,9.40
2023-03-19T18:46:22.182Z,9.10
2023-03-19T18:49:16.407Z,9.10
2023-03-19T18:52:04.740Z,9.10
2023-03-19T18:54:52.139Z,9.10
2023-03-19T18:57:52.622Z,9.10
2023-03-19T19:00:41.612Z,9.10
2023-03-19T19:03:31.809Z,9.10
2023-03-19T19:06:23.599Z,9.00
2023-03-19T19:09:14.082Z,9.00
2023-03-19T19:12:03.862Z,9.00
2023-03-19T19:14:53.276Z,9.00
2023-03-19T19:17:42.158Z,9.00
2023-03-19T19:20:31.741Z,9.40
2023-03-19T19:23:20.315Z,9.00
2023-03-19T19:26:08.246Z,8.90
2023-03-19T19:28:57.037Z,8.90
2023-03-19T19:31:55.003Z,8.80
2023-03-19T19:34:45.884Z,8.90
2023-03-19T19:37:34.450Z,8.80
2023-03-19T19:40:22.723Z,8.80
2023-03-19T19:43:18.419Z,8.80
2023-03-19T19:46:07.212Z,9.80
2023-03-19T19:48:59.650Z,8.70
2023-03-19T19:51:47.261Z,8.70
2023-03-19T19:54:34.753Z,8.70
2023-03-19T19:57:25.133Z,8.70
2023-03-19T20:00:18.051Z,8.80
2023-03-19T20:03:05.780Z,6.90
2023-03-19T20:05:54.858Z,8.60
2023-03-19T20:08:43.506Z,8.70
2023-03-19T20:11:32.514Z,8.60
2023-03-19T20:14:21.137Z,8.60
2023-03-19T20:17:11.772Z,8.60
2023-03-19T20:20:02.950Z,8.60
2023-03-19T20:22:52.627Z,8.70
2023-03-19T20:25:40.737Z,8.60
2023-03-19T20:28:32.488Z,8.40
2023-03-19T20:31:22.917Z,8.60
2023-03-19T20:34:13.086Z,8.70
2023-03-19T20:37:00.409Z,8.60
2023-03-19T20:39:49.663Z,8.60
2023-03-19T20:42:38.267Z,8.50
2023-03-19T20:45:28.507Z,8.50
2023-03-19T20:48:17.776Z,8.40
2023-03-19T20:51:06.277Z,8.40
2023-03-19T20:53:56.913Z,8.40
2023-03-19T20:56:48.196Z,8.40
2023-03-19T20:59:36.284Z,8.40
2023-03-19T21:02:25.340Z,8.40
2023-03-19T21:05:13.744Z,8.80
2023-03-19T21:08:02.047Z,8.40
2023-03-19T21:10:50.393Z,8.40
2023-03-19T21:13:39.653Z,8.40
2023-03-19T21:16:29.404Z,8.30
2023-03-19T21:19:17.639Z,8.30
2023-03-19T21:22:07.002Z,8.20
2023-03-19T21:25:04.398Z,8.10
2023-03-19T21:27:53.667Z,7.90
2023-03-19T21:30:44.437Z,7.70
2023-03-19T21:33:33.028Z,7.60
2023-03-19T21:36:21.285Z,7.60
2023-03-19T21:39:09.543Z,7.50
2023-03-19T21:41:59.414Z,7.50
2023-03-19T21:44:48.114Z,7.40
2023-03-19T21:47:37.124Z,7.30
2023-03-19T21:50:27.812Z,7.20
2023-03-19T21:53:15.242Z,7.10
2023-03-19T21:56:03.264Z,6.90
2023-03-19T21:58:52.091Z,6.80
2023-03-19T22:01:43.924Z,6.70
2023-03-19T22:04:34.258Z,6.60
2023-03-19T22:07:23.504Z,6.50
2023-03-19T22:10:11.758Z,6.40
2023-03-19T22:12:59.435Z,6.30
2023-03-19T22:15:47.932Z,6.20
2023-03-19T22:18:36.441Z,6.60
2023-03-19T22:21:25.789Z,6.20
2023-03-19T22:24:13.580Z,5.90
2023-03-19T22:27:02.084Z,6.20
2023-03-19T22:29:50.612Z,8.60
2023-03-19T22:32:39.233Z,6.00
2023-03-19T22:35:27.435Z,6.00
2023-03-19T22:38:17.602Z,6.10
2023-03-19T22:41:12.997Z,5.90
2023-03-19T22:44:02.673Z,5.80
2023-03-19T22:46:51.322Z,5.80
2023-03-19T22:49:39.114Z,5.80
2023-03-19T22:52:29.290Z,8.20
2023-03-19T22:55:19.693Z,5.70
2023-03-19T22:58:08.120Z,5.70
2023-03-19T23:00:57.192Z,5.40
2023-03-19T23:03:46.330Z,5.60
2023-03-19T23:06:36.296Z,5.60
2023-03-19T23:09:25.493Z,6.60
2023-03-19T23:12:15.869Z,5.50
2023-03-19T23:15:04.156Z,5.30
2023-03-19T23:17:57.118Z,5.60
2023-03-19T23:20:46.648Z,5.50
2023-03-19T23:23:34.150Z,5.50
2023-03-19T23:26:25.674Z,5.40
2023-03-19T23:29:20.354Z,5.40
2023-03-19T23:32:11.612Z,5.40
2023-03-19T23:35:01.914Z,5.30
2023-03-19T23:37:51.705Z,5.30
2023-03-19T23:40:41.284Z,5.20
2023-03-19T23:43:30.312Z,5.10
2023-03-19T23:46:19.627Z,5.10
2023-03-19T23:49:07.687Z,5.10
2023-03-19T23:51:56.227Z,4.90
2023-03-19T23:54:44.369Z,4.90
2023-03-19T23:57:33.444Z,4.80
